Saturday, January 19, 2019, 8:32 PM EST
Back to Local

KMVL, Morrisville Stowe State Airport

Location: Morrisville, VT, United States Lat: 44.533
Local Time: 8:32 PM EST ( 1:32 GMT) Lon: -72.617
Time Zone: US/Eastern Elev: 731 ft

Show me the last for .
Show Decoded

2019-01-19 20:25 METAR KMVL 200125Z AUTO 34003KT 2SM -SN BR M17/M18 A3022 RMK AO2 P0000 T11671183
                 $ =
2019-01-19 20:09 METAR KMVL 200109Z AUTO 34004KT 1 3/4SM -SN BR M18/M18 A3023 RMK AO2 P0000
                 T11781183 $ =
2019-01-19 19:54 METAR KMVL 200054Z AUTO 33003KT 2 1/2SM -SN BR M18/M18 A3023 RMK AO2 SNE02B32
                 SLP260 P0000 T11781183 $ =
2019-01-19 18:54 METAR KMVL 192354Z AUTO 33003KT 5SM -SN BR M17/M18 A3024 RMK AO2 SLP263 P0000
                 60000 T11721183 11139 21178 58019 $ =
2019-01-19 18:28 METAR KMVL 192328Z AUTO 35004KT 3SM -SN A3025 RMK AO2 P0000 $ =
2019-01-19 17:54 METAR KMVL 192254Z AUTO 35005KT 2SM -SN BR M16/M18 A3026 RMK AO2 SLP268 P0000
                 T11611178 $ =
2019-01-19 16:54 METAR KMVL 192154Z AUTO 36006KT 1 3/4SM -SN BR M16/M18 A3029 RMK AO2 SLP277
                 P0000 T11561178 $ =
2019-01-19 16:15 METAR KMVL 192115Z AUTO 36005KT 1 1/4SM -SN BR M16/M18 A3030 RMK AO2 P0000
                 T11611178 $ =
2019-01-19 15:54 METAR KMVL 192054Z AUTO 36005KT 3/4SM -SN BR M15/M17 A3030 RMK AO2 SLP280 P0000
                 60000 T11501172 53004 $ =
2019-01-19 15:21 METAR KMVL 192021Z AUTO 03006KT 3/4SM -SN M16/M18 A3031 RMK AO2 P0000 T11561183
                 $ =
2019-01-19 15:05 METAR KMVL 192005Z AUTO 04005KT 1SM -SN M14/M19 A3030 RMK AO2 P0000 T11441189 $
                 =
2019-01-19 14:51 METAR KMVL 191951Z AUTO 02004KT 1 3/4SM -SN M16/M20 A3030 RMK AO2 SNB34 SLP279
                 P0000 T11561200 $ =
2019-01-19 14:50 METAR KMVL 191950Z AUTO 02004KT 1 3/4SM -SN M16/M20 A3030 RMK AO2 SNB34 P0000 $
                 =
2019-01-19 13:54 METAR KMVL 191854Z AUTO 05004KT 10SM M17/M20 A3028 RMK AO2 SLP271 T11721200 $ =
2019-01-19 12:54 METAR KMVL 191754Z AUTO 35003KT 10SM M14/M20 A3029 RMK AO2 SLP273 T11441200
                 11144 21189 58034 $ =
2019-01-19 11:54 METAR KMVL 191654Z AUTO 35004KT 10SM M15/M20 A3034 RMK AO2 SLP292 T11501200 $ =
2019-01-19 10:54 METAR KMVL 191554Z AUTO 35004KT 10SM M16/M20 A3037 RMK AO2 SLP304 T11561200 $ =
2019-01-19 09:54 METAR KMVL 191454Z AUTO 02004KT 10SM M17/M21 A3039 RMK AO2 SLP309 T11671206
                 51024 $ =
2019-01-19 08:54 METAR KMVL 191354Z AUTO 01007KT 10SM M17/M21 A3038 RMK AO2 SLP306 T11721211 $ =
2019-01-19 07:54 METAR KMVL 191254Z AUTO 02006KT 10SM M18/M22 A3035 RMK AO2 SLP296 T11831217 $ =
2019-01-19 06:54 METAR KMVL 191154Z AUTO 05004KT 10SM M17/M21 A3031 RMK AO2 SLP282 60000
                 T11721211 11083 21178 53021 =
2019-01-19 05:54 METAR KMVL 191054Z AUTO 05008KT 10SM M17/M20 A3029 RMK AO2 SLP274 T11671200 $ =
2019-01-19 04:54 METAR KMVL 190954Z AUTO 03006KT 10SM M16/M19 A3027 RMK AO2 SLP265 T11561194 $ =
2019-01-19 03:54 METAR KMVL 190854Z AUTO 36009KT 10SM M13/M17 A3025 RMK AO2 SNB08E20 SLP259 P0000
                 60000 T11331167 51025 $ =
2019-01-19 02:54 METAR KMVL 190754Z AUTO 35009KT 9SM M12/M15 A3023 RMK AO2 SNE43 SLP252 P0000
                 T11221150 $ =
2019-01-19 01:54 METAR KMVL 190654Z AUTO 33010KT 4SM -SN M11/M13 A3020 RMK AO2 SLP243 P0000
                 T11061133 $ =
2019-01-19 01:37 METAR KMVL 190637Z AUTO 34011KT 3SM -SN OVC026 M09/M12 A3019 RMK AO2 P0000
                 T10941122 =
2019-01-19 01:32 METAR KMVL 190632Z AUTO 35009KT 2 1/2SM -SN SCT024 OVC030 M09/M12 A3019 RMK AO2
                 P0000 T10941122 =
2019-01-19 00:54 METAR KMVL 190554Z AUTO 35003KT 6SM -SN OVC021 M08/M12 A3017 RMK AO2 SLP232
                 P0000 60000 T10831117 11033 21083 53018 =
2019-01-18 23:54 METAR KMVL 190454Z AUTO 04007KT 8SM -SN OVC025 M08/M12 A3015 RMK AO2 SLP225
                 P0000 T10831117 410331144 =
2019-01-18 23:37 METAR KMVL 190437Z AUTO VRB06KT 9SM -SN BKN026 OVC050 M08/M12 A3015 RMK AO2
                 P0000 T10781117 =
2019-01-18 23:23 METAR KMVL 190423Z AUTO 35007KT 8SM -SN SCT024 OVC050 M08/M12 A3015 RMK AO2
                 P0000 T10781117 =
2019-01-18 22:54 METAR KMVL 190354Z AUTO 35007KT 6SM -SN BKN026 BKN036 OVC055 M08/M11 A3014 RMK
                 AO2 SLP220 P0000 T10781106 =
2019-01-18 22:13 METAR KMVL 190313Z AUTO 34005KT 6SM -SN SCT026 BKN036 OVC042 M07/M10 A3013 RMK
                 AO2 P0000 T10721100 =
2019-01-18 22:03 METAR KMVL 190303Z AUTO 34006KT 3SM -SN BKN028 OVC038 M07/M10 A3013 RMK AO2
                 P0000 T10721100 =
2019-01-18 21:54 METAR KMVL 190254Z AUTO 34006KT 3SM -SN BKN030 OVC038 M07/M10 A3012 RMK AO2
                 SLP214 P0000 60000 T10721100 51028 =
2019-01-18 20:54 METAR KMVL 190154Z AUTO 34009G22KT 6SM -SN FEW047 OVC055 M07/M10 A3010 RMK AO2
                 SLP208 P0000 T10671100 =

Support USWX by starting your Amazon purchase here.